TimeEDT,TemperatureF,Dew PointF,Humidity,Sea Level PressureIn,VisibilityMPH,Wind Direction,Wind SpeedMPH,Gust SpeedMPH,PrecipitationIn,Events,Conditions,WindDirDegrees,DateUTC
12:15 AM,71.6,68.0,88,29.83,10.0,Calm,Calm,-,N/A,,Overcast,0,2013-09-01 04:15:00
12:35 AM,71.6,68.0,88,29.83,10.0,Calm,Calm,-,N/A,,Scattered Clouds,0,2013-09-01 04:35:00
12:55 AM,68.0,68.0,100,29.83,10.0,Calm,Calm,-,N/A,,Mostly Cloudy,0,2013-09-01 04:55:00
1:15 AM,68.0,68.0,100,29.82,10.0,Calm,Calm,-,N/A,,Mostly Cloudy,0,2013-09-01 05:15:00
1:35 AM,68.0,68.0,100,29.82,7.0,Calm,Calm,-,N/A,,Clear,0,2013-09-01 05:35:00
1:55 AM,66.2,66.2,100,29.82,5.0,Calm,Calm,-,N/A,,Clear,0,2013-09-01 05:55:00
2:15 AM,66.2,64.4,94,29.82,4.0,Calm,Calm,-,N/A,,Clear,0,2013-09-01 06:15:00
2:35 AM,66.2,66.2,100,29.81,4.0,Calm,Calm,-,N/A,,Clear,0,2013-09-01 06:35:00
2:55 AM,64.4,64.4,100,29.81,0.5,Calm,Calm,-,N/A,Fog,Fog,0,2013-09-01 06:55:00
3:15 AM,64.4,64.4,100,29.80,0.2,Calm,Calm,-,N/A,Fog,Fog,0,2013-09-01 07:15:00
3:35 AM,64.4,64.4,100,29.79,1.0,Calm,Calm,-,N/A,,Mostly Cloudy,0,2013-09-01 07:35:00
3:55 AM,62.6,62.6,100,29.79,1.5,Calm,Calm,-,N/A,,Scattered Clouds,0,2013-09-01 07:55:00
4:15 AM,64.4,64.4,100,29.80,1.2,SE,3.5,-,N/A,,Mist,130,2013-09-01 08:15:00
4:35 AM,64.4,64.4,100,29.80,2.5,Calm,Calm,-,N/A,,Clear,0,2013-09-01 08:35:00
4:55 AM,64.4,64.4,100,29.81,5.0,Calm,Calm,-,N/A,,Clear,0,2013-09-01 08:55:00
5:15 AM,64.4,64.4,100,29.81,2.0,Calm,Calm,-,N/A,,Scattered Clouds,0,2013-09-01 09:15:00
5:35 AM,64.4,64.4,100,29.81,3.0,Calm,Calm,-,N/A,,Mostly Cloudy,0,2013-09-01 09:35:00
5:55 AM,64.4,64.4,100,29.80,1.2,Calm,Calm,-,N/A,,Overcast,0,2013-09-01 09:55:00
6:15 AM,64.4,64.4,100,29.80,1.5,Calm,Calm,-,N/A,,Mostly Cloudy,0,2013-09-01 10:15:00
6:35 AM,62.6,62.6,100,29.80,2.5,Calm,Calm,-,N/A,,Scattered Clouds,0,2013-09-01 10:35:00
6:55 AM,62.6,62.6,100,29.80,0.8,Calm,Calm,-,N/A,,Mostly Cloudy,0,2013-09-01 10:55:00
7:15 AM,62.6,62.6,100,29.80,0.2,Calm,Calm,-,N/A,Fog,Fog,0,2013-09-01 11:15:00
7:35 AM,62.6,62.6,100,29.80,2.0,Calm,Calm,-,N/A,,Mostly Cloudy,0,2013-09-01 11:35:00
7:55 AM,64.4,64.4,100,29.80,2.0,Calm,Calm,-,N/A,,Mostly Cloudy,0,2013-09-01 11:55:00
8:15 AM,66.2,66.2,100,29.81,1.2,Calm,Calm,-,N/A,,Overcast,0,2013-09-01 12:15:00
8:35 AM,66.2,66.2,100,29.81,0.8,Calm,Calm,-,N/A,,Overcast,0,2013-09-01 12:35:00
8:55 AM,68.0,68.0,100,29.81,1.0,Calm,Calm,-,N/A,,Overcast,0,2013-09-01 12:55:00
9:15 AM,68.0,68.0,100,29.81,2.0,Calm,Calm,-,N/A,,Overcast,0,2013-09-01 13:15:00
9:35 AM,68.0,68.0,100,29.80,2.5,South,3.5,-,N/A,,Overcast,170,2013-09-01 13:35:00
9:55 AM,69.8,68.0,94,29.80,3.0,WSW,3.5,-,N/A,,Overcast,240,2013-09-01 13:55:00
10:15 AM,69.8,68.0,94,29.80,4.0,SW,4.6,-,N/A,,Overcast,230,2013-09-01 14:15:00
10:35 AM,71.6,68.0,88,29.81,5.0,WSW,4.6,-,N/A,,Overcast,240,2013-09-01 14:35:00
10:55 AM,71.6,68.0,88,29.82,7.0,WSW,3.5,-,N/A,,Overcast,240,2013-09-01 14:55:00
11:15 AM,71.6,68.0,88,29.81,7.0,SSW,3.5,-,N/A,,Overcast,200,2013-09-01 15:15:00
11:35 AM,73.4,68.0,83,29.82,7.0,WSW,6.9,-,N/A,,Overcast,250,2013-09-01 15:35:00
11:55 AM,73.4,68.0,83,29.83,5.0,West,5.8,-,N/A,,Haze,260,2013-09-01 15:55:00
12:15 PM,73.4,68.0,83,29.83,5.0,WSW,4.6,-,N/A,,Haze,250,2013-09-01 16:15:00
12:35 PM,73.4,69.8,88,29.83,7.0,West,6.9,-,N/A,,Overcast,280,2013-09-01 16:35:00
12:55 PM,75.2,69.8,83,29.81,7.0,West,4.6,-,N/A,,Overcast,270,2013-09-01 16:55:00
1:15 PM,77.0,68.0,74,29.81,7.0,SW,4.6,-,N/A,,Overcast,220,2013-09-01 17:15:00
1:35 PM,77.0,68.0,74,29.81,10.0,West,4.6,-,N/A,,Overcast,270,2013-09-01 17:35:00
1:55 PM,78.8,68.0,69,29.80,10.0,WSW,3.5,-,N/A,,Mostly Cloudy,240,2013-09-01 17:55:00
2:15 PM,78.8,69.8,74,29.81,10.0,WNW,5.8,-,N/A,,Mostly Cloudy,300,2013-09-01 18:15:00
2:35 PM,80.6,69.8,70,29.81,10.0,NW,6.9,-,N/A,,Mostly Cloudy,310,2013-09-01 18:35:00
2:55 PM,80.6,68.0,65,29.80,10.0,NW,4.6,-,N/A,,Mostly Cloudy,310,2013-09-01 18:55:00
3:15 PM,80.6,68.0,65,29.80,10.0,WSW,3.5,-,N/A,,Overcast,240,2013-09-01 19:15:00
3:35 PM,80.6,69.8,70,29.80,10.0,SW,4.6,-,N/A,,Mostly Cloudy,220,2013-09-01 19:35:00
3:55 PM,80.6,69.8,70,29.79,10.0,SW,3.5,-,N/A,,Overcast,220,2013-09-01 19:55:00
4:15 PM,80.6,69.8,70,29.79,10.0,SW,4.6,-,N/A,,Mostly Cloudy,220,2013-09-01 20:15:00
4:35 PM,80.6,69.8,70,29.79,10.0,SW,4.6,-,N/A,,Scattered Clouds,220,2013-09-01 20:35:00
4:55 PM,78.8,69.8,74,29.78,10.0,SW,4.6,-,N/A,,Overcast,220,2013-09-01 20:55:00
5:15 PM,80.6,69.8,70,29.78,10.0,WSW,6.9,-,N/A,,Mostly Cloudy,250,2013-09-01 21:15:00
5:35 PM,82.4,69.8,66,29.78,10.0,West,5.8,-,N/A,,Scattered Clouds,260,2013-09-01 21:35:00
5:55 PM,80.6,68.0,65,29.78,10.0,WSW,6.9,-,N/A,,Clear,250,2013-09-01 21:55:00
6:15 PM,80.6,68.0,65,29.78,10.0,WSW,5.8,-,N/A,,Clear,250,2013-09-01 22:15:00
6:35 PM,78.8,69.8,74,29.78,10.0,SSW,5.8,-,N/A,,Clear,210,2013-09-01 22:35:00
6:55 PM,78.8,69.8,74,29.78,10.0,SW,6.9,-,N/A,,Clear,230,2013-09-01 22:55:00
7:15 PM,78.8,69.8,74,29.78,10.0,WSW,5.8,-,N/A,,Clear,250,2013-09-01 23:15:00
7:35 PM,77.0,69.8,78,29.78,10.0,WSW,5.8,-,N/A,,Clear,240,2013-09-01 23:35:00
7:55 PM,77.0,69.8,78,29.78,10.0,WSW,5.8,-,N/A,,Clear,240,2013-09-01 23:55:00
8:15 PM,75.2,69.8,83,29.79,10.0,Calm,Calm,-,N/A,,Clear,0,2013-09-02 00:15:00
8:35 PM,73.4,69.8,88,29.80,7.0,SW,3.5,-,N/A,,Scattered Clouds,220,2013-09-02 00:35:00
8:55 PM,73.4,71.6,94,29.81,7.0,Calm,Calm,-,N/A,,Overcast,0,2013-09-02 00:55:00
9:15 PM,73.4,71.6,94,29.81,7.0,WSW,3.5,-,N/A,,Overcast,240,2013-09-02 01:15:00
9:35 PM,73.4,69.8,88,29.81,7.0,WSW,4.6,-,N/A,,Overcast,250,2013-09-02 01:35:00
9:55 PM,73.4,69.8,88,29.81,7.0,Calm,Calm,-,N/A,,Scattered Clouds,0,2013-09-02 01:55:00
10:15 PM,71.6,69.8,94,29.81,7.0,WSW,3.5,-,N/A,,Clear,250,2013-09-02 02:15:00
10:35 PM,71.6,69.8,94,29.80,7.0,Calm,Calm,-,N/A,,Clear,0,2013-09-02 02:35:00
10:55 PM,71.6,69.8,94,29.80,7.0,SSW,4.6,-,N/A,,Clear,210,2013-09-02 02:55:00
11:15 PM,71.6,68.0,88,29.80,7.0,WSW,3.5,-,N/A,,Clear,240,2013-09-02 03:15:00
11:35 PM,69.8,68.0,94,29.80,7.0,Calm,Calm,-,N/A,,Clear,0,2013-09-02 03:35:00
11:55 PM,68.0,66.2,94,29.81,7.0,West,4.6,-,N/A,,Clear,280,2013-09-02 03:55:00